Time;durP1;ratioP1;P1;durP2;ratioP2;P2;SDS_P1;SDS_P2;PMS_P1;PMS_P2;Temp;Humidity;BMP_temperature;BMP_pressure;BME280_temperature;BME280_humidity;BME280_pressure;Samples;Min_cycle;Max_cycle;Signal;HPM_P1;HPM_P2
2023/01/25 00:01:05;;;;;;;21.80;14.50;;;;;;;2.03;100.00;100533.45;221618;1272;22561;-74
2023/01/25 00:06:11;;;;;;;24.40;14.60;;;;;;;2.03;100.00;100538.60;221422;1278;25297;-73
2023/01/25 00:11:15;;;;;;;24.00;14.20;;;;;;;2.00;100.00;100532.49;221379;1273;22621;-74
2023/01/25 00:16:22;;;;;;;34.30;17.60;;;;;;;1.97;100.00;100532.89;221484;1278;22951;-73
2023/01/25 00:21:25;;;;;;;36.20;19.40;;;;;;;1.97;100.00;100533.51;221565;1278;24234;-74
2023/01/25 00:26:34;;;;;;;42.00;20.20;;;;;;;1.93;100.00;100527.02;221426;1275;24286;-74
2023/01/25 00:32:04;;;;;;;41.20;21.30;;;;;;;1.90;100.00;100527.73;221576;1278;24292;-74
2023/01/25 00:37:24;;;;;;;34.70;19.30;;;;;;;1.85;100.00;100523.58;221643;1278;25348;-75
2023/01/25 00:42:27;;;;;;;32.00;18.00;;;;;;;1.82;100.00;100522.81;221510;1276;22689;-73
2023/01/25 00:47:30;;;;;;;31.00;17.50;;;;;;;1.84;100.00;100528.20;221531;1275;22607;-75
2023/01/25 00:52:32;;;;;;;32.50;18.10;;;;;;;1.85;100.00;100539.02;221558;1278;25280;-74
2023/01/25 00:57:35;;;;;;;39.60;19.80;;;;;;;1.82;100.00;100530.59;221379;1278;22575;-74
2023/01/25 01:02:38;;;;;;;30.20;17.50;;;;;;;1.83;100.00;100528.32;221242;1277;25262;-74
2023/01/25 01:07:40;;;;;;;23.10;14.90;;;;;;;1.85;100.00;100524.42;221415;1278;22531;-75
2023/01/25 01:12:46;;;;;;;18.70;12.60;;;;;;;1.83;100.00;100522.86;221432;1276;23308;-74
2023/01/25 01:17:49;;;;;;;20.00;13.40;;;;;;;1.82;100.00;100513.66;221345;1278;22778;-74
2023/01/25 01:22:54;;;;;;;22.20;14.40;;;;;;;1.79;100.00;100503.71;221463;1275;22750;-74
2023/01/25 01:27:57;;;;;;;19.70;12.10;;;;;;;1.79;100.00;100489.08;221611;1272;22536;-74
2023/01/25 01:32:59;;;;;;;17.10;11.00;;;;;;;1.80;100.00;100482.71;221458;1276;22651;-73
2023/01/25 01:38:03;;;;;;;13.80;9.50;;;;;;;1.79;100.00;100481.31;221511;1263;23609;-74
2023/01/25 01:43:17;;;;;;;11.00;7.90;;;;;;;1.77;100.00;100474.17;221318;1275;22569;-73
2023/01/25 01:48:37;;;;;;;11.10;7.80;;;;;;;1.73;100.00;100479.05;221246;1278;24319;-73
2023/01/25 01:53:42;;;;;;;;;;;;;;;1.68;100.00;100474.46;221589;1275;22574;-74
2023/01/25 01:58:52;;;;;;;12.80;9.10;;;;;;;1.69;100.00;100462.11;221405;1278;26232;-74
2023/01/25 02:03:55;;;;;;;10.50;7.80;;;;;;;1.67;100.00;100458.41;221354;1277;22546;-74
2023/01/25 02:08:59;;;;;;;10.90;8.00;;;;;;;1.64;100.00;100453.33;221284;1278;22543;-75
2023/01/25 02:14:03;;;;;;;10.90;9.10;;;;;;;1.61;100.00;100445.58;221381;1278;24292;-74
2023/01/25 02:19:09;;;;;;;12.70;8.40;;;;;;;1.63;100.00;100436.89;221615;1278;25439;-73
2023/01/25 02:24:34;;;;;;;11.10;8.60;;;;;;;1.66;100.00;100430.26;221462;1272;25402;-74
2023/01/25 02:29:40;;;;;;;10.00;7.60;;;;;;;1.64;100.00;100432.80;221502;1278;22550;-74
2023/01/25 02:34:43;;;;;;;10.60;7.00;;;;;;;1.62;100.00;100433.91;221602;1275;22545;-75
2023/01/25 02:39:46;;;;;;;10.40;8.00;;;;;;;1.61;100.00;100433.78;221503;1276;24275;-75
2023/01/25 02:44:50;;;;;;;13.20;9.70;;;;;;;1.60;100.00;100435.52;221382;1278;23966;-74
2023/01/25 02:49:52;;;;;;;11.30;9.10;;;;;;;1.61;100.00;100430.65;221490;1276;25473;-74
2023/01/25 02:54:54;;;;;;;11.90;9.20;;;;;;;1.61;100.00;100435.45;221493;1278;22546;-74
2023/01/25 02:59:58;;;;;;;12.20;10.30;;;;;;;1.62;100.00;100437.24;221560;1278;22773;-73
2023/01/25 03:05:02;;;;;;;11.50;8.90;;;;;;;1.60;100.00;100439.02;221328;1273;22533;-74
2023/01/25 03:10:06;;;;;;;10.50;8.40;;;;;;;1.55;100.00;100432.30;221288;1276;22553;-74
2023/01/25 03:15:09;;;;;;;9.20;7.20;;;;;;;1.52;100.00;100430.77;221325;1278;22537;-74
2023/01/25 03:20:13;;;;;;;10.60;9.00;;;;;;;1.51;100.00;100426.21;221763;1278;22579;-74
2023/01/25 03:25:27;;;;;;;10.80;8.50;;;;;;;1.50;100.00;100427.02;221247;1278;25396;-74
2023/01/25 03:30:39;;;;;;;11.20;8.70;;;;;;;1.52;100.00;100416.27;221572;1276;26541;-74
2023/01/25 03:35:42;;;;;;;12.10;8.80;;;;;;;1.49;100.00;100418.52;221365;1278;22542;-74
2023/01/25 03:41:12;;;;;;;12.90;10.50;;;;;;;1.46;100.00;100421.50;221347;1275;25232;-74
2023/01/25 03:46:22;;;;;;;11.90;10.20;;;;;;;1.50;100.00;100423.35;221497;1275;25246;-74
2023/01/25 03:51:25;;;;;;;16.90;12.80;;;;;;;1.50;100.00;100420.88;221729;1276;22545;-75
2023/01/25 03:56:29;;;;;;;15.00;12.10;;;;;;;1.50;100.00;100421.74;221229;1278;22534;-74
2023/01/25 04:01:36;;;;;;;17.20;13.70;;;;;;;1.49;100.00;100418.35;221522;1275;22532;-74
2023/01/25 04:06:39;;;;;;;16.30;12.60;;;;;;;1.51;100.00;100410.70;221360;1276;22545;-75
2023/01/25 04:11:42;;;;;;;18.70;14.40;;;;;;;1.47;100.00;100405.77;221557;1276;22558;-74
2023/01/25 04:16:48;;;;;;;20.20;15.10;;;;;;;1.46;100.00;100398.48;221547;1275;25265;-74
2023/01/25 04:22:09;;;;;;;20.60;16.00;;;;;;;1.47;100.00;100397.78;221332;1278;22550;-74
2023/01/25 04:27:12;;;;;;;18.00;14.00;;;;;;;1.50;100.00;100396.79;221510;1278;24280;-74
2023/01/25 04:32:35;;;;;;;20.20;15.70;;;;;;;1.44;100.00;100392.45;221346;1278;24666;-74
2023/01/25 04:37:40;;;;;;;19.00;15.10;;;;;;;1.45;100.00;100392.14;221470;1278;22658;-74
2023/01/25 04:42:45;;;;;;;22.50;15.80;;;;;;;1.48;100.00;100385.59;221265;1278;26531;-74
2023/01/25 04:47:48;;;;;;;24.00;17.50;;;;;;;1.50;100.00;100380.40;221492;1277;22620;-74
2023/01/25 04:52:52;;;;;;;21.60;16.00;;;;;;;1.50;100.00;100376.34;221403;1278;22633;-74
2023/01/25 04:57:55;;;;;;;22.00;16.70;;;;;;;1.49;100.00;100375.16;221402;1278;22673;-74
2023/01/25 05:02:59;;;;;;;22.90;16.90;;;;;;;1.51;100.00;100375.20;221503;1278;22544;-74
2023/01/25 05:08:01;;;;;;;21.20;15.90;;;;;;;1.52;100.00;100367.38;221484;1275;25367;-74
2023/01/25 05:13:06;;;;;;;21.40;15.70;;;;;;;1.52;100.00;100364.37;221472;1277;22537;-74
2023/01/25 05:18:11;;;;;;;19.20;14.90;;;;;;;1.52;100.00;100364.13;221872;1275;22528;-74
2023/01/25 05:23:16;;;;;;;20.00;15.20;;;;;;;1.52;100.00;100355.31;221486;1278;25256;-77
2023/01/25 05:28:19;;;;;;;20.70;15.90;;;;;;;1.51;100.00;100352.09;221610;1278;22530;-74
2023/01/25 05:33:41;;;;;;;22.00;16.30;;;;;;;1.52;100.00;100349.45;221294;1278;24252;-74
2023/01/25 05:38:44;;;;;;;23.80;17.70;;;;;;;1.53;100.00;100346.34;221504;1278;22655;-75
2023/01/25 05:43:48;;;;;;;23.00;17.40;;;;;;;1.59;100.00;100347.20;221494;1278;24235;-74
2023/01/25 05:48:53;;;;;;;25.20;19.50;;;;;;;1.67;100.00;100349.73;221323;1278;22564;-74
2023/01/25 05:53:57;;;;;;;22.40;17.60;;;;;;;1.74;100.00;100345.37;221546;1272;23774;-75
2023/01/25 05:59:01;;;;;;;21.10;15.00;;;;;;;1.70;100.00;100343.56;221464;1278;22671;-74
2023/01/25 06:04:13;;;;;;;21.00;17.40;;;;;;;1.66;100.00;100342.63;221460;1278;25372;-74
2023/01/25 06:09:30;;;;;;;23.10;17.90;;;;;;;1.68;100.00;100338.05;221550;1278;22554;-74
2023/01/25 06:14:35;;;;;;;24.00;18.50;;;;;;;1.66;100.00;100335.50;221456;1278;25236;-74
2023/01/25 06:19:41;;;;;;;25.50;19.00;;;;;;;1.62;100.00;100337.59;221663;1257;22609;-74
2023/01/25 06:24:53;;;;;;;27.90;20.20;;;;;;;1.58;100.00;100338.58;221466;1275;22558;-75
2023/01/25 06:29:55;;;;;;;27.90;19.90;;;;;;;1.54;100.00;100341.48;221259;1278;24146;-74
2023/01/25 06:34:57;;;;;;;25.20;19.00;;;;;;;1.58;100.00;100339.15;221530;1262;25494;-74
2023/01/25 06:40:00;;;;;;;27.60;19.40;;;;;;;1.61;100.00;100339.45;221351;1278;23213;-74
2023/01/25 06:45:06;;;;;;;27.10;19.80;;;;;;;1.61;100.00;100339.02;221673;1278;22529;-74
2023/01/25 06:50:09;;;;;;;28.30;20.10;;;;;;;1.61;100.00;100333.41;221819;1270;25398;-75
2023/01/25 06:55:12;;;;;;;28.60;20.10;;;;;;;1.59;100.00;100331.39;221761;1278;23317;-74
2023/01/25 07:00:16;;;;;;;26.20;18.50;;;;;;;1.60;100.00;100328.84;222306;1259;22569;-75
2023/01/25 07:05:19;;;;;;;25.90;18.90;;;;;;;1.65;100.00;100323.55;222124;1254;139021;-74
2023/01/25 07:10:21;;;;;;;26.00;18.70;;;;;;;1.70;100.00;100319.66;222229;1266;139070;-76
2023/01/25 07:15:27;;;;;;;22.50;16.10;;;;;;;1.76;100.00;100317.46;222231;1260;23003;-76
2023/01/25 07:20:34;;;;;;;26.00;18.20;;;;;;;1.81;100.00;100311.16;221903;1272;138587;-76
2023/01/25 07:25:57;;;;;;;26.30;18.10;;;;;;;1.85;100.00;100307.89;222016;1272;139072;-75
2023/01/25 07:31:04;;;;;;;25.80;18.90;;;;;;;1.94;100.00;100304.29;222315;1266;139206;-75
2023/01/25 07:36:11;;;;;;;25.00;18.80;;;;;;;2.01;100.00;100307.17;221894;1269;139284;-74
2023/01/25 07:41:15;;;;;;;24.90;17.70;;;;;;;2.03;100.00;100296.90;222045;1264;139128;-75
2023/01/25 07:46:22;;;;;;;28.60;19.10;;;;;;;2.03;100.00;100297.71;222031;1273;138745;-74
2023/01/25 07:51:29;;;;;;;25.90;18.50;;;;;;;2.11;100.00;100295.89;222158;1272;25234;-75
2023/01/25 07:56:36;;;;;;;29.30;20.70;;;;;;;2.12;100.00;100295.00;221728;1269;138451;-75
2023/01/25 08:01:42;;;;;;;34.00;22.70;;;;;;;2.13;100.00;100286.87;221819;1272;139161;-77
2023/01/25 08:06:48;;;;;;;31.40;21.60;;;;;;;2.19;100.00;100280.39;221629;1272;138665;-74
2023/01/25 08:11:52;;;;;;;33.20;22.90;;;;;;;2.19;100.00;100277.13;221510;1272;138760;-74
2023/01/25 08:16:55;;;;;;;31.80;23.80;;;;;;;2.18;100.00;100279.03;221813;1262;138618;-75
2023/01/25 08:21:57;;;;;;;32.40;23.00;;;;;;;2.18;100.00;100280.59;221649;1275;138663;-74
2023/01/25 08:26:59;;;;;;;27.70;20.80;;;;;;;2.17;100.00;100279.16;221865;1266;25304;-74
2023/01/25 08:32:03;;;;;;;30.50;22.50;;;;;;;2.17;100.00;100273.70;221878;1266;138318;-74
2023/01/25 08:37:08;;;;;;;32.00;20.70;;;;;;;2.23;100.00;100268.20;222408;1267;138455;-75
2023/01/25 08:42:13;;;;;;;28.90;20.20;;;;;;;2.26;100.00;100258.82;221816;1272;138732;-74
2023/01/25 08:47:19;;;;;;;31.30;23.10;;;;;;;2.19;100.00;100255.09;221803;1273;138617;-75
2023/01/25 08:52:29;;;;;;;30.70;22.10;;;;;;;2.13;100.00;100257.98;221947;1275;138667;-75
2023/01/25 08:57:31;;;;;;;29.50;21.40;;;;;;;2.21;100.00;100250.09;222377;1265;26244;-75
2023/01/25 09:02:34;;;;;;;34.30;25.30;;;;;;;2.30;100.00;100245.86;222027;1262;140982;-74
2023/01/25 09:07:40;;;;;;;35.30;24.20;;;;;;;2.39;100.00;100245.13;221833;1272;139178;-75
2023/01/25 09:12:44;;;;;;;37.00;25.30;;;;;;;2.48;100.00;100243.02;222148;1268;139165;-77
2023/01/25 09:17:58;;;;;;;34.90;23.80;;;;;;;2.53;100.00;100240.00;221939;1273;139208;-75
2023/01/25 09:23:04;;;;;;;33.80;23.00;;;;;;;2.55;100.00;100234.98;221966;1273;139033;-75
2023/01/25 09:28:10;;;;;;;30.10;22.00;;;;;;;2.55;100.00;100233.94;222169;1273;139364;-75
2023/01/25 09:33:15;;;;;;;25.10;18.20;;;;;;;2.58;100.00;100230.03;223265;1272;22549;-75
2023/01/25 09:38:27;;;;;;;27.10;19.30;;;;;;;2.60;100.00;100217.98;221889;1273;139241;-75
2023/01/25 09:43:59;;;;;;;30.70;21.70;;;;;;;2.63;100.00;100210.34;217990;1272;5333841;-75
2023/01/25 09:49:46;;;;;;;28.70;20.40;;;;;;;2.67;100.00;100202.21;222857;1269;139379;-76
2023/01/25 09:54:54;;;;;;;29.30;21.50;;;;;;;2.72;100.00;100201.45;221860;1262;138666;-75
2023/01/25 10:00:02;;;;;;;27.70;21.60;;;;;;;2.73;100.00;100194.04;221912;1273;138870;-75
2023/01/25 10:05:22;;;;;;;25.50;19.60;;;;;;;2.72;100.00;100178.61;222200;1256;139334;-75
2023/01/25 10:10:42;;;;;;;30.00;21.10;;;;;;;2.72;100.00;100169.16;223459;1272;139174;-75
2023/01/25 10:16:16;;;;;;;31.30;22.60;;;;;;;2.75;100.00;100160.13;222076;1273;139064;-75
2023/01/25 10:21:34;;;;;;;33.50;23.00;;;;;;;2.78;100.00;100154.42;222142;1266;22564;-75
2023/01/25 10:26:43;;;;;;;34.80;24.10;;;;;;;2.79;100.00;100150.55;221643;1272;138132;-75
2023/01/25 10:32:19;;;;;;;32.10;23.10;;;;;;;2.83;100.00;100148.48;221757;1272;139013;-74
2023/01/25 10:37:33;;;;;;;31.10;21.80;;;;;;;2.91;100.00;100140.67;221401;1275;139339;-74
2023/01/25 10:42:47;;;;;;;32.40;21.00;;;;;;;2.91;100.00;100131.31;221616;1275;139202;-74
2023/01/25 10:47:59;;;;;;;27.70;20.80;;;;;;;2.90;100.00;100118.60;221648;1275;139242;-75
2023/01/25 10:53:02;;;;;;;27.10;21.50;;;;;;;2.96;100.00;100125.06;222047;1275;139219;-78
2023/01/25 10:58:30;;;;;;;27.20;20.00;;;;;;;2.94;100.00;100120.06;221961;1273;138652;-75
2023/01/25 11:03:43;;;;;;;27.50;21.90;;;;;;;2.92;100.00;100108.41;221802;1272;22559;-76
2023/01/25 11:08:47;;;;;;;24.50;17.50;;;;;;;2.88;100.00;100096.77;221604;1273;25535;-76
2023/01/25 11:13:54;;;;;;;21.90;15.70;;;;;;;2.88;100.00;100084.69;221812;1273;138260;-74
2023/01/25 11:18:58;;;;;;;22.60;17.00;;;;;;;2.91;100.00;100082.89;221887;1275;138557;-76
2023/01/25 11:56:13;;;;;;;15.10;12.20;;;;;;;26.06;100.00;100299.41;215538;1310;545067;-78
2023/01/25 12:01:33;;;;;;;15.40;11.40;;;;;;;17.14;100.00;99824.83;219759;1282;174681;-77
2023/01/25 12:07:02;;;;;;;16.90;13.40;;;;;;;12.28;100.00;99567.85;217111;1284;3067754;-76
2023/01/25 12:12:27;;;;;;;18.00;13.30;;;;;;;9.57;100.00;99394.96;220389;1282;138761;-77
2023/01/25 12:18:20;;;;;;;19.60;14.40;;;;;;;8.05;100.00;99334.20;221367;1282;138184;-77
2023/01/25 12:24:31;;;;;;;19.30;14.00;;;;;;;6.88;100.00;99387.54;221128;1269;138392;-77
2023/01/25 12:30:19;;;;;;;20.30;15.80;;;;;;;6.01;100.00;99508.38;221770;1287;138340;-75
2023/01/25 12:35:32;;;;;;;19.10;14.70;;;;;;;5.54;100.00;99468.81;220484;1273;137955;-76
2023/01/25 12:40:58;;;;;;;18.10;12.90;;;;;;;5.18;100.00;99467.83;220533;1276;137916;-77
2023/01/25 12:46:12;;;;;;;16.80;12.20;;;;;;;5.00;100.00;99451.66;220793;1280;138012;-77
2023/01/25 12:51:16;;;;;;;16.70;12.00;;;;;;;4.84;100.00;99439.64;220917;1280;34549;-76
2023/01/25 12:57:17;;;;;;;20.00;14.30;;;;;;;4.68;100.00;99427.29;220768;1284;138420;-75
2023/01/25 13:02:51;;;;;;;19.10;14.10;;;;;;;4.55;100.00;99420.95;220717;1282;137984;-74
2023/01/25 13:08:10;;;;;;;18.10;12.70;;;;;;;4.45;94.87;99386.27;220772;1282;138087;-74
2023/01/25 13:13:27;;;;;;;21.30;15.00;;;;;;;4.30;78.65;99309.76;220680;1280;137728;-75
2023/01/25 13:18:39;;;;;;;20.60;15.30;;;;;;;4.19;74.21;99265.36;220658;1282;138081;-75
2023/01/25 13:24:08;;;;;;;22.90;16.70;;;;;;;4.16;73.56;99273.48;220569;1285;138386;-74
2023/01/25 13:29:46;;;;;;;23.90;17.40;;;;;;;4.14;73.27;99324.08;220197;1288;138590;-74
2023/01/25 13:34:51;;;;;;;28.50;18.80;;;;;;;4.06;73.23;99408.96;220377;1273;137885;-73
2023/01/25 13:39:58;;;;;;;23.90;18.30;;;;;;;3.97;73.30;99492.38;220476;1281;25475;-74
2023/01/25 13:45:19;;;;;;;24.70;17.30;;;;;;;3.90;73.57;99584.60;220480;1273;22578;-73
2023/01/25 13:50:25;;;;;;;27.60;18.60;;;;;;;3.85;73.47;99662.36;220389;1275;138655;-72
2023/01/25 13:55:36;;;;;;;26.90;19.90;;;;;;;3.87;73.72;99727.85;220562;1270;138486;-73
2023/01/25 14:00:47;;;;;;;26.50;19.30;;;;;;;3.89;73.81;99782.09;220262;1283;138011;-74
2023/01/25 14:05:52;;;;;;;28.20;19.70;;;;;;;3.92;74.08;99823.08;220344;1281;137925;-73
2023/01/25 14:10:57;;;;;;;26.30;18.60;;;;;;;3.93;74.27;99842.66;220361;1281;137877;-74
2023/01/25 14:16:03;;;;;;;28.40;20.00;;;;;;;3.88;74.14;99851.02;220287;1282;24526;-75
2023/01/25 14:24:28;;;;;;;25.10;17.60;;;;;;;3.77;73.97;99870.34;214912;1305;544791;-75
2023/01/25 14:29:34;;;;;;;24.60;18.60;;;;;;;3.64;73.90;99875.53;219758;1286;138624;-75
2023/01/25 14:34:36;;;;;;;22.40;16.40;;;;;;;3.62;74.25;99880.97;219558;1291;137613;-75
2023/01/25 14:39:38;;;;;;;25.10;17.70;;;;;;;3.57;74.58;99878.21;219650;1288;22728;-74
2023/01/25 14:44:42;;;;;;;24.70;18.20;;;;;;;3.56;74.94;99869.02;219662;1290;137526;-74
2023/01/25 14:49:44;;;;;;;23.60;16.20;;;;;;;3.55;74.87;99863.34;220185;1285;138070;-75
2023/01/25 14:54:55;;;;;;;26.30;17.10;;;;;;;3.51;75.20;99851.63;221536;1275;137903;-76
2023/01/25 15:00:03;;;;;;;26.70;18.90;;;;;;;3.50;75.20;99850.86;221585;1259;137910;-75
2023/01/25 15:05:28;;;;;;;26.30;18.80;;;;;;;3.46;75.35;99844.89;222863;1280;22581;-75
2023/01/25 15:10:52;;;;;;;24.90;18.30;;;;;;;3.43;75.42;99835.16;221523;1280;25443;-75
2023/01/25 15:15:58;;;;;;;26.90;18.80;;;;;;;3.38;75.30;99833.11;221548;1276;22539;-75
2023/01/25 15:21:07;;;;;;;27.00;19.30;;;;;;;3.32;75.38;99832.19;221414;1280;22593;-75
2023/01/25 15:26:14;;;;;;;29.20;20.90;;;;;;;3.27;75.48;99824.94;221208;1280;23031;-75
2023/01/25 15:31:26;;;;;;;35.30;22.10;;;;;;;3.24;75.91;99820.48;221275;1277;22546;-75
2023/01/25 15:36:30;;;;;;;34.50;22.60;;;;;;;3.21;75.75;99813.75;221204;1278;22539;-75
2023/01/25 15:41:36;;;;;;;42.60;25.40;;;;;;;3.16;75.99;99816.20;221191;1279;22552;-74
2023/01/25 15:46:55;;;;;;;51.50;31.40;;;;;;;3.13;76.20;99805.58;221315;1280;22571;-75
2023/01/25 15:52:00;;;;;;;57.70;35.30;;;;;;;3.13;76.70;99805.75;221118;1280;25252;-74
2023/01/25 15:57:03;;;;;;;60.30;37.40;;;;;;;3.15;76.84;99810.84;221277;1276;22543;-75
2023/01/25 16:02:11;;;;;;;60.90;37.00;;;;;;;3.16;77.00;99809.56;221397;1273;25290;-76
2023/01/25 16:07:25;;;;;;;67.30;35.60;;;;;;;3.15;76.70;99804.19;221309;1274;22536;-75
2023/01/25 16:12:31;;;;;;;67.60;35.60;;;;;;;3.12;76.65;99803.05;221430;1279;22534;-75
2023/01/25 16:17:34;;;;;;;77.90;37.80;;;;;;;3.10;77.06;99795.61;221028;1279;22568;-76
2023/01/25 16:22:40;;;;;;;68.50;37.30;;;;;;;3.07;77.01;99786.72;221281;1279;22569;-76
2023/01/25 16:27:42;;;;;;;70.80;38.70;;;;;;;3.04;76.88;99779.47;221174;1280;22605;-74
2023/01/25 16:32:45;;;;;;;70.60;36.70;;;;;;;3.02;77.09;99770.61;221340;1274;25317;-74
2023/01/25 16:37:51;;;;;;;62.40;31.50;;;;;;;3.01;77.50;99765.48;221270;1280;22556;-75
2023/01/25 16:42:57;;;;;;;58.00;32.30;;;;;;;2.99;77.24;99763.70;221310;1280;22552;-75
2023/01/25 16:48:14;;;;;;;60.30;31.20;;;;;;;2.94;77.34;99759.73;221314;1274;22563;-76
2023/01/25 16:53:27;;;;;;;;;;;;;;;;;;;;;
2023/01/25 16:58:33;;;;;;;46.20;27.60;;;;;;;2.84;77.49;99756.96;221182;1280;22632;-74
2023/01/25 17:03:44;;;;;;;50.50;30.30;;;;;;;2.81;77.87;99746.11;221330;1280;22587;-75
2023/01/25 17:08:57;;;;;;;50.90;31.50;;;;;;;2.81;78.04;99744.70;221329;1280;22680;-75
2023/01/25 17:14:10;;;;;;;49.40;28.80;;;;;;;2.80;77.89;99740.40;221027;1275;22536;-76
2023/01/25 17:19:18;;;;;;;44.60;27.10;;;;;;;2.80;78.09;99736.10;221485;1280;22651;-75
2023/01/25 17:24:21;;;;;;;43.70;26.80;;;;;;;2.80;78.50;99730.19;221450;1280;22595;-75
2023/01/25 17:29:24;;;;;;;46.50;26.30;;;;;;;2.81;78.33;99724.55;221453;1273;22543;-76
2023/01/25 17:34:26;;;;;;;30.20;19.30;;;;;;;2.81;78.37;99708.49;221258;1279;22893;-76
2023/01/25 17:39:29;;;;;;;27.40;17.50;;;;;;;2.79;77.99;99699.77;221203;1278;25417;-75
2023/01/25 17:44:35;;;;;;;26.30;16.10;;;;;;;2.76;77.89;99701.10;221305;1277;22540;-75
2023/01/25 17:49:38;;;;;;;38.60;25.10;;;;;;;2.73;77.67;99693.64;221304;1280;23044;-75
2023/01/25 17:54:40;;;;;;;33.80;21.60;;;;;;;2.73;77.77;99683.39;221355;1273;24385;-74
2023/01/25 17:59:42;;;;;;;32.70;21.20;;;;;;;2.73;78.06;99683.39;221105;1280;22555;-75
2023/01/25 18:04:45;;;;;;;30.00;20.00;;;;;;;2.76;78.26;99678.83;221248;1280;22547;-75
2023/01/25 18:09:47;;;;;;;30.90;20.20;;;;;;;2.76;77.94;99671.33;221285;1277;25358;-74
2023/01/25 18:14:52;;;;;;;27.70;18.10;;;;;;;2.74;77.90;99668.34;221246;1280;23042;-74
2023/01/25 18:19:55;;;;;;;32.90;21.60;;;;;;;2.69;77.82;99673.37;221143;1280;26395;-75
2023/01/25 18:25:01;;;;;;;33.30;22.40;;;;;;;2.66;78.08;99664.16;221442;1276;24231;-75
2023/01/25 18:30:36;;;;;;;38.40;26.60;;;;;;;2.64;78.30;99657.30;221359;1275;22603;-75
2023/01/25 18:35:48;;;;;;;38.30;26.30;;;;;;;2.60;77.66;99650.27;221337;1280;25319;-75
2023/01/25 18:40:51;;;;;;;38.20;24.50;;;;;;;2.58;78.51;99646.58;221369;1280;22614;-76
2023/01/25 18:45:55;;;;;;;32.40;22.00;;;;;;;2.60;78.56;99643.84;221440;1280;25558;-75
2023/01/25 18:51:06;;;;;;;44.30;27.60;;;;;;;2.57;78.22;99639.54;221179;1280;22536;-75
2023/01/25 18:56:19;;;;;;;42.30;28.10;;;;;;;2.55;78.29;99639.39;221266;1280;22645;-75
2023/01/25 19:01:21;;;;;;;44.20;27.90;;;;;;;2.54;78.56;99627.27;221248;1279;22558;-75
2023/01/25 19:06:24;;;;;;;36.20;22.70;;;;;;;2.54;78.76;99626.20;221365;1274;22546;-75
2023/01/25 19:11:29;;;;;;;31.60;20.10;;;;;;;2.53;78.43;99625.12;221277;1276;23779;-75
2023/01/25 19:16:31;;;;;;;22.40;13.90;;;;;;;2.48;78.39;99616.94;221276;1279;25382;-76
2023/01/25 19:21:34;;;;;;;23.50;14.90;;;;;;;2.44;78.38;99615.00;221119;1279;22616;-76
2023/01/25 19:26:37;;;;;;;22.60;15.00;;;;;;;2.40;78.02;99610.58;221379;1273;22570;-75
2023/01/25 19:31:43;;;;;;;21.30;14.00;;;;;;;2.37;78.16;99606.10;221282;1277;23010;-75
2023/01/25 19:36:52;;;;;;;23.40;15.00;;;;;;;2.33;78.09;99602.10;221371;1273;25360;-76
2023/01/25 19:41:55;;;;;;;19.90;13.40;;;;;;;2.27;77.95;99597.49;221183;1278;22537;-76
2023/01/25 19:46:57;;;;;;;23.20;15.30;;;;;;;2.21;77.68;99590.39;221232;1273;22559;-74
2023/01/25 19:52:01;;;;;;;20.20;13.40;;;;;;;2.16;77.81;99588.61;221288;1280;22563;-75
2023/01/25 19:57:03;;;;;;;17.00;11.00;;;;;;;2.13;78.02;99593.20;220966;1280;22560;-75
2023/01/25 20:02:13;;;;;;;15.90;11.10;;;;;;;2.08;77.86;99582.30;221441;1278;23816;-75
2023/01/25 20:07:26;;;;;;;18.40;11.90;;;;;;;2.05;78.35;99584.56;221228;1280;22587;-75
2023/01/25 20:12:30;;;;;;;15.80;10.90;;;;;;;2.05;78.12;99577.79;221567;1272;22551;-75
2023/01/25 20:17:32;;;;;;;19.80;13.10;;;;;;;2.03;78.11;99580.05;221258;1278;23033;-75
2023/01/25 20:22:34;;;;;;;14.20;9.60;;;;;;;1.98;77.79;99579.02;221305;1278;22705;-75
2023/01/25 20:27:37;;;;;;;15.50;10.00;;;;;;;1.97;77.76;99576.50;221209;1274;22534;-75
2023/01/25 20:32:42;;;;;;;17.10;11.70;;;;;;;1.92;77.76;99577.61;221205;1280;22651;-75
2023/01/25 20:37:45;;;;;;;18.40;11.70;;;;;;;1.87;77.60;99578.98;221167;1273;26392;-75
2023/01/25 20:42:50;;;;;;;18.50;12.70;;;;;;;1.83;77.97;99573.72;221007;1275;22543;-76
2023/01/25 20:47:52;;;;;;;17.40;11.50;;;;;;;1.79;78.02;99571.01;221081;1276;22574;-76
2023/01/25 20:52:54;;;;;;;15.10;9.80;;;;;;;1.76;77.64;99571.09;221269;1278;22597;-77
2023/01/25 20:57:59;;;;;;;24.90;16.00;;;;;;;1.70;77.84;99560.77;221334;1280;25422;-76
2023/01/25 21:03:01;;;;;;;19.40;12.10;;;;;;;1.71;78.10;99559.45;221594;1276;24209;-76
2023/01/25 21:08:03;;;;;;;19.30;12.50;;;;;;;1.72;78.07;99551.44;221218;1276;25388;-76
2023/01/25 21:13:06;;;;;;;14.10;9.70;;;;;;;1.67;77.84;99544.49;221427;1274;23505;-75
2023/01/25 21:18:11;;;;;;;13.30;9.90;;;;;;;1.60;77.55;99540.35;221260;1280;25393;-75
2023/01/25 21:23:13;;;;;;;14.50;10.10;;;;;;;1.51;77.82;99537.90;221176;1280;22679;-75
2023/01/25 21:28:18;;;;;;;13.80;9.10;;;;;;;1.49;78.09;99533.98;221245;1280;22553;-76
2023/01/25 21:33:21;;;;;;;14.50;10.50;;;;;;;1.45;77.73;99530.88;221110;1278;22600;-76
2023/01/25 21:38:24;;;;;;;15.90;10.40;;;;;;;1.40;77.70;99533.80;221397;1278;22533;-75
2023/01/25 21:43:28;;;;;;;13.50;8.80;;;;;;;1.37;78.09;99531.91;221242;1279;24401;-75
2023/01/25 21:53:52;;;;;;;10.00;7.20;;;;;;;1.35;77.87;99523.05;221286;1256;22571;-75
2023/01/25 21:59:00;;;;;;;9.50;7.50;;;;;;;1.32;77.82;99519.98;221385;1280;22650;-75
2023/01/25 22:04:02;;;;;;;12.60;8.60;;;;;;;1.32;77.61;99528.17;221197;1280;22704;-75
2023/01/25 22:09:05;;;;;;;12.50;8.50;;;;;;;1.29;78.03;99520.55;221038;1275;22698;-76
2023/01/25 22:14:14;;;;;;;13.30;8.80;;;;;;;1.23;77.53;99517.39;221135;1280;22577;-76
2023/01/25 22:19:19;;;;;;;11.50;8.70;;;;;;;1.17;77.73;99506.85;221453;1280;22658;-75
2023/01/25 22:24:22;;;;;;;13.20;9.10;;;;;;;1.12;77.95;99509.17;221172;1278;22588;-75
2023/01/25 22:29:33;;;;;;;13.50;9.60;;;;;;;1.08;78.26;99500.59;221275;1280;22562;-75
2023/01/25 22:34:36;;;;;;;15.60;11.70;;;;;;;1.03;78.03;99500.23;221299;1275;22539;-76
2023/01/25 22:39:48;;;;;;;16.00;11.30;;;;;;;1.02;78.57;99502.06;221177;1280;23790;-75
2023/01/25 22:44:51;;;;;;;15.80;10.50;;;;;;;1.07;78.49;99493.91;221297;1276;22555;-75
2023/01/25 22:49:55;;;;;;;18.40;12.90;;;;;;;1.12;78.62;99490.11;221549;1275;22544;-74
2023/01/25 22:55:00;;;;;;;19.80;13.60;;;;;;;1.16;78.69;99478.84;221192;1280;22599;-74
2023/01/25 23:00:03;;;;;;;21.50;13.90;;;;;;;1.15;78.51;99474.07;221308;1280;22662;-75
2023/01/25 23:05:08;;;;;;;21.60;14.10;;;;;;;1.15;78.77;99463.11;221388;1268;25450;-75
2023/01/25 23:10:11;;;;;;;19.60;12.90;;;;;;;1.15;78.78;99458.96;221280;1280;22582;-75
2023/01/25 23:15:14;;;;;;;20.20;13.90;;;;;;;1.17;79.12;99455.20;221316;1275;24298;-75
2023/01/25 23:20:23;;;;;;;25.30;16.20;;;;;;;1.19;78.96;99448.11;220972;1280;22605;-75
2023/01/25 23:25:28;;;;;;;24.10;17.10;;;;;;;1.20;78.96;99444.73;221325;1280;22550;-75
2023/01/25 23:30:31;;;;;;;24.60;16.30;;;;;;;1.24;79.15;99428.67;221273;1278;22961;-75
2023/01/25 23:35:34;;;;;;;26.10;17.30;;;;;;;1.29;79.37;99425.16;221407;1277;24291;-75
2023/01/25 23:40:36;;;;;;;24.90;17.10;;;;;;;1.33;79.59;99418.04;221242;1279;23583;-75
2023/01/25 23:45:43;;;;;;;25.60;16.20;;;;;;;1.35;79.51;99409.41;221312;1275;25416;-76
2023/01/25 23:50:46;;;;;;;23.40;17.00;;;;;;;1.36;79.60;99404.64;221451;1277;22540;-75
2023/01/25 23:56:04;;;;;;;25.20;17.40;;;;;;;1.34;79.34;99396.34;221133;1274;24405;-76
